createdAt,value
2022-08-20T00:01:10.115Z,7.20
2022-08-20T00:03:40.389Z,5.80
2022-08-20T00:06:20.783Z,7.07
2022-08-20T00:08:47.610Z,5.97
2022-08-20T00:11:19.128Z,6.85
2022-08-20T00:13:56.219Z,6.27
2022-08-20T00:16:26.050Z,5.93
2022-08-20T00:18:53.365Z,5.97
2022-08-20T00:21:21.185Z,6.65
2022-08-20T00:23:50.676Z,6.30
2022-08-20T00:26:18.561Z,6.90
2022-08-20T00:28:45.173Z,6.15
2022-08-20T00:31:14.375Z,7.20
2022-08-20T00:33:41.388Z,7.35
2022-08-20T00:36:10.797Z,7.75
2022-08-20T00:38:39.942Z,6.18
2022-08-20T00:41:09.936Z,6.68
2022-08-20T00:44:04.891Z,6.63
2022-08-20T00:46:33.190Z,5.80
2022-08-20T00:49:09.925Z,5.78
2022-08-20T00:52:08.826Z,6.65
2022-08-20T00:55:52.995Z,6.05
2022-08-20T00:58:19.676Z,6.20
2022-08-20T01:00:47.795Z,6.30
2022-08-20T01:03:17.615Z,6.40
2022-08-20T01:05:46.956Z,5.90
2022-08-20T01:08:14.830Z,6.97
2022-08-20T01:10:44.751Z,5.93
2022-08-20T01:13:14.583Z,6.75
2022-08-20T01:15:44.100Z,5.85
2022-08-20T01:18:17.776Z,6.82
2022-08-20T01:20:52.701Z,6.28
2022-08-20T01:23:28.383Z,6.38
2022-08-20T01:26:18.501Z,6.25
2022-08-20T01:28:52.971Z,5.72
2022-08-20T01:31:25.972Z,6.35
2022-08-20T01:33:54.103Z,6.30
2022-08-20T01:36:27.141Z,6.43
2022-08-20T01:38:54.756Z,6.13
2022-08-20T01:42:05.081Z,6.43
2022-08-20T01:44:32.674Z,6.13
2022-08-20T01:47:22.330Z,6.13
2022-08-20T01:50:03.183Z,5.80
2022-08-20T01:52:57.666Z,5.78
2022-08-20T01:55:24.445Z,6.30
2022-08-20T01:57:50.884Z,5.75
2022-08-20T02:00:20.509Z,7.40
2022-08-20T02:02:49.410Z,5.65
2022-08-20T02:05:16.282Z,6.10
2022-08-20T02:07:43.016Z,5.97
2022-08-20T02:10:18.996Z,6.50
2022-08-20T02:12:45.664Z,5.47
2022-08-20T02:15:12.964Z,6.82
2022-08-20T02:17:40.983Z,6.10
2022-08-20T02:20:11.804Z,7.03
2022-08-20T02:22:38.186Z,5.70
2022-08-20T02:25:08.913Z,6.40
2022-08-20T02:27:36.945Z,6.00
2022-08-20T02:30:11.188Z,5.93
2022-08-20T02:32:48.427Z,5.85
2022-08-20T02:35:15.919Z,6.68
2022-08-20T02:37:44.179Z,5.30
2022-08-20T02:40:15.270Z,6.50
2022-08-20T02:42:42.598Z,5.57
2022-08-20T02:45:11.594Z,6.05
2022-08-20T02:47:46.311Z,5.40
2022-08-20T02:50:17.348Z,6.22
2022-08-20T02:52:51.536Z,5.13
2022-08-20T02:55:28.105Z,6.95
2022-08-20T02:58:02.083Z,6.03
2022-08-20T03:00:32.193Z,5.90
2022-08-20T03:03:05.891Z,6.15
2022-08-20T03:05:32.523Z,5.75
2022-08-20T03:08:02.474Z,5.72
2022-08-20T03:10:33.417Z,5.72
2022-08-20T03:13:11.060Z,5.80
2022-08-20T03:15:43.117Z,5.65
2022-08-20T03:18:14.053Z,6.45
2022-08-20T03:20:41.851Z,5.80
2022-08-20T03:23:08.339Z,6.30
2022-08-20T03:25:35.759Z,5.90
2022-08-20T03:28:02.727Z,5.90
2022-08-20T03:30:30.380Z,5.47
2022-08-20T03:32:58.235Z,5.60
2022-08-20T03:35:27.075Z,5.50
2022-08-20T03:37:54.020Z,5.80
2022-08-20T03:40:25.141Z,6.32
2022-08-20T03:42:54.465Z,5.97
2022-08-20T03:45:22.896Z,6.50
2022-08-20T03:47:50.244Z,5.97
2022-08-20T03:50:23.573Z,6.40
2022-08-20T03:52:52.277Z,6.20
2022-08-20T03:55:20.223Z,6.45
2022-08-20T03:57:54.198Z,5.90
2022-08-20T04:00:27.039Z,6.00
2022-08-20T04:02:53.605Z,6.93
2022-08-20T04:05:21.342Z,6.60
2022-08-20T04:07:47.749Z,6.80
2022-08-20T04:10:14.411Z,7.80
2022-08-20T04:12:48.688Z,6.50
2022-08-20T04:15:20.377Z,7.28
2022-08-20T04:17:52.729Z,5.90
2022-08-20T04:20:28.863Z,6.70
2022-08-20T04:22:59.049Z,6.57
2022-08-20T04:25:29.862Z,6.43
2022-08-20T04:28:05.479Z,6.45
2022-08-20T04:30:32.990Z,6.45
2022-08-20T04:33:02.682Z,6.47
2022-08-20T04:35:30.626Z,5.93
2022-08-20T04:38:09.703Z,6.07
2022-08-20T04:40:58.291Z,6.95
2022-08-20T04:43:28.311Z,6.53
2022-08-20T04:46:01.698Z,6.95
2022-08-20T04:48:29.388Z,7.43
2022-08-20T04:50:57.198Z,6.68
2022-08-20T04:53:27.893Z,7.60
2022-08-20T04:55:57.110Z,7.97
2022-08-20T04:58:34.429Z,7.88
2022-08-20T05:01:05.678Z,8.40
2022-08-20T05:03:32.973Z,9.38
2022-08-20T05:06:03.963Z,9.57
2022-08-20T05:08:31.386Z,9.55
2022-08-20T05:11:33.886Z,9.85
2022-08-20T05:13:52.752Z,9.05
2022-08-20T05:16:20.136Z,10.32
2022-08-20T05:18:48.736Z,9.65
2022-08-20T05:21:19.240Z,9.02
2022-08-20T05:23:45.735Z,9.38
2022-08-20T05:26:13.006Z,10.15
2022-08-20T05:28:53.900Z,9.27
2022-08-20T05:31:32.665Z,8.35
2022-08-20T05:34:11.785Z,9.38
2022-08-20T05:36:45.491Z,8.77
2022-08-20T05:39:14.479Z,11.10
2022-08-20T05:41:41.095Z,9.02
2022-08-20T05:44:14.061Z,11.93
2022-08-20T05:46:43.363Z,11.43
2022-08-20T05:49:16.251Z,11.18
2022-08-20T05:51:44.005Z,10.63
2022-08-20T05:54:10.937Z,12.55
2022-08-20T05:56:37.781Z,9.93
2022-08-20T05:59:08.404Z,11.05
2022-08-20T06:01:37.522Z,10.38
2022-08-20T06:04:23.574Z,10.80
2022-08-20T06:06:52.238Z,10.63
2022-08-20T06:09:31.346Z,10.80
2022-08-20T06:12:03.630Z,10.05
2022-08-20T06:14:33.042Z,9.85
2022-08-20T06:17:09.424Z,10.23
2022-08-20T06:19:37.470Z,7.68
2022-08-20T06:22:08.559Z,9.27
2022-08-20T06:24:47.611Z,9.63
2022-08-20T06:27:18.789Z,11.02
2022-08-20T06:29:45.582Z,9.75
2022-08-20T06:32:12.009Z,10.65
2022-08-20T06:34:49.851Z,9.35
2022-08-20T06:37:30.908Z,10.75
2022-08-20T06:40:04.445Z,9.52
2022-08-20T06:42:30.912Z,8.70
2022-08-20T06:44:59.542Z,8.90
2022-08-20T06:47:25.975Z,9.63
2022-08-20T06:49:53.551Z,8.68
2022-08-20T06:52:20.043Z,10.07
2022-08-20T06:54:56.402Z,9.63
2022-08-20T06:57:22.838Z,8.45
2022-08-20T06:59:54.180Z,8.60
2022-08-20T07:02:20.915Z,9.43
2022-08-20T07:04:57.496Z,9.23
2022-08-20T07:07:23.910Z,8.27
2022-08-20T07:09:51.263Z,8.13
2022-08-20T07:12:17.871Z,11.05
2022-08-20T07:14:44.347Z,7.80
2022-08-20T07:17:12.216Z,10.23
2022-08-20T07:19:39.033Z,7.80
2022-08-20T07:22:06.406Z,8.82
2022-08-20T07:24:34.294Z,8.55
2022-08-20T07:27:02.254Z,9.43
2022-08-20T07:29:48.645Z,8.13
2022-08-20T07:32:33.486Z,9.90
2022-08-20T07:35:11.692Z,9.27
2022-08-20T07:37:41.438Z,8.32
2022-08-20T07:40:12.064Z,8.82
2022-08-20T07:42:41.759Z,8.30
2022-08-20T07:45:13.553Z,9.23
2022-08-20T07:47:41.735Z,7.25
2022-08-20T07:50:13.850Z,9.82
2022-08-20T07:52:40.463Z,8.32
2022-08-20T07:55:10.638Z,9.77
2022-08-20T07:57:37.918Z,7.68
2022-08-20T08:00:05.900Z,9.15
2022-08-20T08:02:32.303Z,8.30
2022-08-20T08:04:58.793Z,8.65
2022-08-20T08:07:28.440Z,8.75
2022-08-20T08:09:56.843Z,8.77
2022-08-20T08:12:25.276Z,9.48
2022-08-20T08:14:52.550Z,8.02
2022-08-20T08:17:19.175Z,9.35
2022-08-20T08:19:50.195Z,8.88
2022-08-20T08:22:20.669Z,9.60
2022-08-20T08:24:56.750Z,8.57
2022-08-20T08:27:24.001Z,8.73
2022-08-20T08:29:57.550Z,8.15
2022-08-20T08:32:24.658Z,8.00
2022-08-20T08:34:52.702Z,7.78
2022-08-20T08:37:19.230Z,8.45
2022-08-20T08:39:45.658Z,8.05
2022-08-20T08:42:37.091Z,8.27
2022-08-20T08:45:10.735Z,9.70
2022-08-20T08:47:39.048Z,8.77
2022-08-20T08:50:10.216Z,8.82
2022-08-20T08:52:42.590Z,8.00
2022-08-20T08:55:15.874Z,8.40
2022-08-20T08:57:43.409Z,8.15
2022-08-20T09:00:19.268Z,8.55
2022-08-20T09:03:01.301Z,7.40
2022-08-20T09:05:53.867Z,7.72
2022-08-20T09:08:25.931Z,7.50
2022-08-20T09:11:04.407Z,7.50
2022-08-20T09:13:34.404Z,6.93
2022-08-20T09:16:01.001Z,7.80
2022-08-20T09:18:31.043Z,7.25
2022-08-20T09:21:02.033Z,8.55
2022-08-20T09:23:28.398Z,7.82
2022-08-20T09:25:54.943Z,8.18
2022-08-20T09:28:21.342Z,7.70
2022-08-20T09:30:47.972Z,7.80
2022-08-20T09:33:14.449Z,8.13
2022-08-20T09:35:41.043Z,7.80
2022-08-20T09:38:08.183Z,9.52
2022-08-20T09:40:34.756Z,7.53
2022-08-20T09:43:01.501Z,8.45
2022-08-20T09:45:27.875Z,7.28
2022-08-20T09:47:54.964Z,7.90
2022-08-20T09:50:24.235Z,7.68
2022-08-20T09:52:57.512Z,7.78
2022-08-20T09:55:38.263Z,7.93
2022-08-20T09:58:19.785Z,8.95
2022-08-20T10:00:46.981Z,7.82
2022-08-20T10:03:13.521Z,7.55
2022-08-20T10:05:40.259Z,7.93
2022-08-20T10:08:08.754Z,9.23
2022-08-20T10:10:35.412Z,7.57
2022-08-20T10:13:04.634Z,9.43
2022-08-20T10:15:31.708Z,7.15
2022-08-20T10:17:58.431Z,8.57
2022-08-20T10:20:25.462Z,7.45
2022-08-20T10:22:55.779Z,7.45
2022-08-20T10:25:22.187Z,7.13
2022-08-20T10:27:52.888Z,8.00
2022-08-20T10:30:19.332Z,7.53
2022-08-20T10:32:45.838Z,7.35
2022-08-20T10:35:12.393Z,8.20
2022-08-20T10:37:41.222Z,7.20
2022-08-20T10:40:08.517Z,8.27
2022-08-20T10:42:37.955Z,7.35
2022-08-20T10:45:09.162Z,9.55
2022-08-20T10:47:35.627Z,7.20
2022-08-20T10:50:04.473Z,8.80
2022-08-20T10:52:30.860Z,7.78
2022-08-20T10:54:57.496Z,8.60
2022-08-20T10:57:29.522Z,7.93
2022-08-20T11:00:01.225Z,10.10
2022-08-20T11:02:28.086Z,7.97
2022-08-20T11:04:55.997Z,8.25
2022-08-20T11:07:54.988Z,7.75
2022-08-20T11:10:18.890Z,8.00
2022-08-20T11:12:46.626Z,7.95
2022-08-20T11:15:13.885Z,8.23
2022-08-20T11:17:42.658Z,8.25
2022-08-20T11:20:11.645Z,8.63
2022-08-20T11:22:38.350Z,7.70
2022-08-20T11:25:06.741Z,8.95
2022-08-20T11:27:40.184Z,7.88
2022-08-20T11:30:09.736Z,8.85
2022-08-20T11:32:38.477Z,7.68
2022-08-20T11:35:24.484Z,9.15
2022-08-20T11:37:57.268Z,7.50
2022-08-20T11:40:27.513Z,8.00
2022-08-20T11:43:13.701Z,8.48
2022-08-20T11:45:43.158Z,7.90
2022-08-20T11:48:09.683Z,8.35
2022-08-20T11:50:36.554Z,8.15
2022-08-20T11:53:03.278Z,8.27
2022-08-20T11:55:30.295Z,7.70
2022-08-20T11:57:59.854Z,8.05
2022-08-20T12:00:31.854Z,7.47
2022-08-20T12:03:04.995Z,9.85
2022-08-20T12:05:32.608Z,7.57
2022-08-20T12:08:01.426Z,8.65
2022-08-20T12:10:28.650Z,7.88
2022-08-20T12:12:56.661Z,7.82
2022-08-20T12:15:24.065Z,7.93
2022-08-20T12:17:50.871Z,7.97
2022-08-20T12:20:17.592Z,7.72
2022-08-20T12:22:44.640Z,7.75
2022-08-20T12:25:13.156Z,9.32
2022-08-20T12:27:40.218Z,7.65
2022-08-20T12:30:10.805Z,9.13
2022-08-20T12:32:37.713Z,7.63
2022-08-20T12:35:05.787Z,8.38
2022-08-20T12:37:32.878Z,8.05
2022-08-20T12:40:00.997Z,7.57
2022-08-20T12:42:30.276Z,7.80
2022-08-20T12:45:00.373Z,8.27
2022-08-20T12:47:36.150Z,7.68
2022-08-20T12:50:10.003Z,8.45
2022-08-20T12:52:37.265Z,7.18
2022-08-20T12:55:05.987Z,8.15
2022-08-20T12:57:36.098Z,7.90
2022-08-20T13:00:08.101Z,8.95
2022-08-20T13:02:34.861Z,7.45
2022-08-20T13:05:09.102Z,8.18
2022-08-20T13:07:36.377Z,7.00
2022-08-20T13:10:05.323Z,7.70
2022-08-20T13:12:31.822Z,6.40
2022-08-20T13:15:01.040Z,7.68
2022-08-20T13:17:38.756Z,6.80
2022-08-20T13:20:09.414Z,8.68
2022-08-20T13:22:40.318Z,7.20
2022-08-20T13:25:07.883Z,8.05
2022-08-20T13:27:38.281Z,6.85
2022-08-20T13:30:07.837Z,7.82
2022-08-20T13:32:34.506Z,7.32
2022-08-20T13:35:01.026Z,8.30
2022-08-20T13:37:29.203Z,7.35
2022-08-20T13:39:56.818Z,6.88
2022-08-20T13:42:23.426Z,7.13
2022-08-20T13:44:50.344Z,6.40
2022-08-20T13:47:25.751Z,6.68
2022-08-20T13:50:02.199Z,6.57
2022-08-20T13:52:28.938Z,7.32
2022-08-20T13:54:55.379Z,7.15
2022-08-20T13:57:24.669Z,7.18
2022-08-20T13:59:54.017Z,6.40
2022-08-20T14:02:21.079Z,8.07
2022-08-20T14:04:48.680Z,6.30
2022-08-20T14:07:22.142Z,7.75
2022-08-20T14:09:53.773Z,6.72
2022-08-20T14:12:23.125Z,6.23
2022-08-20T14:14:51.657Z,6.35
2022-08-20T14:17:24.462Z,6.22
2022-08-20T14:19:53.587Z,6.20
2022-08-20T14:22:21.926Z,6.32
2022-08-20T14:24:49.777Z,7.05
2022-08-20T14:27:19.742Z,6.38
2022-08-20T14:29:48.052Z,6.22
2022-08-20T14:32:15.522Z,6.82
2022-08-20T14:34:42.041Z,6.13
2022-08-20T14:37:25.120Z,7.85
2022-08-20T14:39:53.776Z,6.40
2022-08-20T14:42:22.982Z,6.88
2022-08-20T14:44:50.446Z,6.30
2022-08-20T14:47:21.901Z,6.28
2022-08-20T14:49:53.001Z,6.32
2022-08-20T14:52:20.886Z,6.45
2022-08-20T14:54:49.045Z,6.45
2022-08-20T14:57:18.261Z,6.20
2022-08-20T14:59:48.372Z,5.80
2022-08-20T15:02:16.947Z,6.35
2022-08-20T15:04:43.781Z,6.10
2022-08-20T15:07:30.011Z,6.40
2022-08-20T15:09:57.872Z,7.25
2022-08-20T15:12:24.639Z,6.10
2022-08-20T15:14:51.467Z,6.60
2022-08-20T15:17:27.778Z,6.38
2022-08-20T15:19:55.551Z,6.50
2022-08-20T15:22:22.951Z,6.40
2022-08-20T15:24:57.571Z,6.03
2022-08-20T15:27:25.297Z,6.50
2022-08-20T15:29:53.590Z,6.50
2022-08-20T15:32:21.276Z,6.30
2022-08-20T15:34:48.162Z,6.05
2022-08-20T15:37:23.137Z,6.30
2022-08-20T15:39:50.509Z,6.35
2022-08-20T15:42:18.650Z,7.28
2022-08-20T15:44:46.202Z,6.30
2022-08-20T15:47:27.694Z,7.53
2022-08-20T15:50:00.697Z,6.68
2022-08-20T15:52:32.507Z,6.20
2022-08-20T15:55:01.442Z,7.65
2022-08-20T15:57:36.997Z,6.68
2022-08-20T16:00:15.718Z,7.45
2022-08-20T16:02:58.651Z,6.50
2022-08-20T16:06:02.403Z,6.70
2022-08-20T16:08:42.682Z,6.70
2022-08-20T16:11:42.224Z,7.82
2022-08-20T16:14:11.377Z,7.40
2022-08-20T16:16:59.130Z,6.47
2022-08-20T16:19:34.842Z,6.88
2022-08-20T16:22:04.610Z,6.75
2022-08-20T16:24:34.450Z,7.28
2022-08-20T16:27:22.659Z,8.02
2022-08-20T16:30:07.260Z,6.43
2022-08-20T16:32:45.782Z,6.60
2022-08-20T16:35:29.032Z,7.22
2022-08-20T16:38:05.606Z,7.05
2022-08-20T16:41:11.058Z,6.35
2022-08-20T16:43:45.610Z,5.97
2022-08-20T16:46:21.471Z,6.65
2022-08-20T16:48:56.130Z,6.60
2022-08-20T16:51:51.958Z,6.15
2022-08-20T16:54:29.562Z,6.50
2022-08-20T16:57:01.384Z,7.13
2022-08-20T16:59:30.130Z,6.30
2022-08-20T17:02:18.430Z,7.35
2022-08-20T17:04:59.275Z,6.97
2022-08-20T17:07:46.152Z,6.95
2022-08-20T17:10:27.212Z,6.70
2022-08-20T17:13:05.145Z,6.95
2022-08-20T17:15:33.957Z,6.70
2022-08-20T17:18:25.563Z,7.15
2022-08-20T17:20:53.142Z,6.85
2022-08-20T17:23:24.223Z,7.43
2022-08-20T17:26:31.139Z,6.60
2022-08-20T17:29:00.719Z,7.25
2022-08-20T17:31:43.293Z,7.07
2022-08-20T17:34:24.208Z,7.93
2022-08-20T17:37:19.479Z,6.32
2022-08-20T17:39:49.983Z,6.85
2022-08-20T17:42:28.370Z,7.10
2022-08-20T17:45:15.310Z,6.90
2022-08-20T17:47:43.809Z,6.43
2022-08-20T17:50:20.399Z,7.68
2022-08-20T17:52:50.821Z,7.15
2022-08-20T17:55:19.652Z,6.60
2022-08-20T17:57:49.905Z,6.50
2022-08-20T18:00:23.518Z,6.88
2022-08-20T18:03:01.364Z,6.80
2022-08-20T18:05:34.435Z,7.15
2022-08-20T18:08:09.885Z,7.68
2022-08-20T18:11:07.481Z,6.32
2022-08-20T18:13:48.402Z,6.75
2022-08-20T18:16:25.764Z,6.05
2022-08-20T18:19:02.354Z,6.68
2022-08-20T18:21:52.354Z,6.47
2022-08-20T18:24:26.255Z,6.20
2022-08-20T18:26:59.445Z,6.57
2022-08-20T18:29:33.176Z,6.80
2022-08-20T18:32:02.447Z,7.30
2022-08-20T18:34:29.539Z,6.50
2022-08-20T18:37:16.829Z,7.22
2022-08-20T18:39:48.436Z,6.03
2022-08-20T18:42:34.954Z,7.22
2022-08-20T18:45:01.638Z,7.35
2022-08-20T18:47:33.692Z,6.25
2022-08-20T18:50:16.789Z,6.60
2022-08-20T18:52:49.529Z,6.32
2022-08-20T18:55:30.548Z,6.50
2022-08-20T18:58:06.822Z,7.47
2022-08-20T19:00:46.177Z,6.63
2022-08-20T19:03:18.572Z,7.22
2022-08-20T19:05:45.147Z,6.38
2022-08-20T19:08:19.930Z,7.70
2022-08-20T19:11:10.659Z,6.53
2022-08-20T19:13:40.167Z,6.30
2022-08-20T19:16:38.781Z,7.22
2022-08-20T19:19:15.286Z,7.43
2022-08-20T19:21:42.715Z,6.25
2022-08-20T19:24:14.408Z,7.13
2022-08-20T19:26:55.004Z,6.60
2022-08-20T19:29:27.565Z,6.28
2022-08-20T19:31:59.387Z,6.88
2022-08-20T19:34:26.910Z,6.55
2022-08-20T19:37:02.583Z,6.07
2022-08-20T19:39:36.949Z,6.35
2022-08-20T19:42:15.257Z,7.28
2022-08-20T19:44:53.334Z,6.55
2022-08-20T19:47:32.469Z,6.00
2022-08-20T19:50:21.619Z,7.22
2022-08-20T19:52:56.771Z,6.28
2022-08-20T19:55:30.666Z,6.90
2022-08-20T19:58:00.262Z,7.32
2022-08-20T20:00:29.946Z,6.10
2022-08-20T20:02:56.792Z,7.07
2022-08-20T20:05:23.489Z,6.63
2022-08-20T20:07:57.168Z,7.00
2022-08-20T20:10:32.456Z,6.60
2022-08-20T20:13:08.330Z,7.47
2022-08-20T20:15:35.950Z,7.43
2022-08-20T20:18:02.557Z,7.03
2022-08-20T20:20:33.438Z,6.88
2022-08-20T20:23:12.202Z,7.07
2022-08-20T20:25:45.129Z,7.28
2022-08-20T20:28:22.729Z,8.10
2022-08-20T20:30:49.769Z,6.47
2022-08-20T20:33:35.525Z,6.60
2022-08-20T20:36:11.022Z,7.88
2022-08-20T20:38:51.807Z,6.35
2022-08-20T20:41:23.039Z,6.90
2022-08-20T20:44:01.013Z,6.45
2022-08-20T20:46:30.056Z,6.50
2022-08-20T20:49:12.184Z,6.75
2022-08-20T20:51:41.404Z,6.15
2022-08-20T20:54:25.169Z,7.20
2022-08-20T20:57:03.879Z,6.28
2022-08-20T20:59:33.966Z,6.20
2022-08-20T21:02:01.033Z,7.68
2022-08-20T21:04:28.070Z,5.80
2022-08-20T21:06:56.830Z,6.57
2022-08-20T21:09:24.762Z,6.57
2022-08-20T21:11:52.110Z,6.50
2022-08-20T21:14:18.618Z,5.90
2022-08-20T21:16:45.287Z,6.18
2022-08-20T21:19:12.802Z,7.07
2022-08-20T21:21:40.000Z,5.75
2022-08-20T21:24:07.242Z,7.22
2022-08-20T21:26:34.323Z,6.45
2022-08-20T21:29:00.855Z,7.07
2022-08-20T21:31:33.441Z,6.55
2022-08-20T21:34:00.061Z,7.03
2022-08-20T21:36:26.891Z,6.93
2022-08-20T21:38:53.770Z,5.75
2022-08-20T21:41:29.603Z,6.53
2022-08-20T21:43:58.135Z,6.72
2022-08-20T21:46:25.909Z,6.22
2022-08-20T21:48:55.095Z,6.32
2022-08-20T21:51:21.638Z,6.43
2022-08-20T21:53:48.269Z,6.55
2022-08-20T21:56:14.715Z,6.78
2022-08-20T21:58:41.693Z,6.28
2022-08-20T22:01:08.185Z,7.35
2022-08-20T22:03:38.904Z,6.60
2022-08-20T22:06:09.516Z,7.18
2022-08-20T22:08:36.424Z,6.75
2022-08-20T22:11:04.800Z,6.90
2022-08-20T22:13:33.135Z,6.63
2022-08-20T22:16:01.236Z,7.32
2022-08-20T22:18:28.441Z,7.53
2022-08-20T22:20:55.016Z,6.15
2022-08-20T22:23:21.531Z,7.07
2022-08-20T22:25:48.540Z,7.30
2022-08-20T22:28:14.996Z,6.57
2022-08-20T22:30:42.572Z,6.28
2022-08-20T22:33:12.600Z,7.57
2022-08-20T22:35:43.969Z,6.65
2022-08-20T22:38:10.733Z,7.47
2022-08-20T22:40:37.391Z,6.72
2022-08-20T22:43:06.750Z,6.97
2022-08-20T22:45:33.314Z,6.68
2022-08-20T22:48:00.602Z,7.18
2022-08-20T22:50:28.297Z,6.47
2022-08-20T22:52:55.144Z,6.55
2022-08-20T22:55:21.559Z,6.50
2022-08-20T22:57:48.781Z,6.07
2022-08-20T23:00:17.147Z,7.63
2022-08-20T23:02:47.997Z,5.88
2022-08-20T23:05:20.141Z,7.38
2022-08-20T23:07:51.905Z,5.72
2022-08-20T23:10:20.446Z,6.30
2022-08-20T23:12:46.914Z,7.13
2022-08-20T23:15:13.420Z,6.85
2022-08-20T23:17:39.980Z,6.20
2022-08-20T23:20:08.810Z,7.25
2022-08-20T23:22:35.782Z,6.38
2022-08-20T23:25:04.638Z,8.15
2022-08-20T23:27:32.772Z,6.30
2022-08-20T23:29:59.446Z,7.18
2022-08-20T23:32:26.134Z,6.45
2022-08-20T23:34:52.724Z,6.43
2022-08-20T23:37:19.799Z,6.20
2022-08-20T23:39:46.525Z,6.72
2022-08-20T23:42:14.223Z,6.57
2022-08-20T23:44:40.983Z,6.25
2022-08-20T23:47:08.503Z,6.82
2022-08-20T23:49:35.187Z,6.25
2022-08-20T23:52:01.603Z,6.00
2022-08-20T23:54:30.341Z,6.05
2022-08-20T23:56:57.643Z,6.85
2022-08-20T23:59:24.605Z,5.97
